Shamanna — 2JDD7 — position and weather

sailwx.info

Track history (hours):
 
Tides and Currents Weather Stations Pressure Air Temp Water Temp Dewpoint Dewpoint Depression Visibility Wind Speed Wind Dir Waves Ship Positions

Shamanna

Last reported at 2018-Apr-26 00:30 UTC. Time now 2018-Aug-20 16:20 UTC.
Position N 09°13' W 079°55'.
Warning: this ship's position is months out of date.

Length 35 m; draft 6 m.

Type: Ship. MMSI: 235114931.

Date/timePositionNaut miles runAvg speedWind from/ knotsBaromVisibWave heightAir tempDewpointWater temp
2018-Apr-26 00:30N 09°13' W 079°55'3 6.3
2018-Apr-25 23:59N 09°16' W 079°55'0 0.4
2018-Apr-25 23:28N 09°17' W 079°55'1 0.9
2018-Apr-25 22:53N 09°17' W 079°55'1 2.7
2018-Apr-25 22:30N 09°18' W 079°55'2 4.6
2018-Apr-25 22:00N 09°20' W 079°55'0 0.7
2018-Apr-25 21:28N 09°20' W 079°55'0 0.0
2018-Apr-25 20:58N 09°20' W 079°55'0 0.0
2018-Apr-25 20:28N 09°20' W 079°55'0 0.0
2018-Apr-25 19:58N 09°20' W 079°55'0 0.0
2018-Apr-25 19:28N 09°20' W 079°55'0 0.0
2018-Apr-25 18:58N 09°20' W 079°55'0 0.0
2018-Apr-25 18:28N 09°20' W 079°55'0 0.0
2018-Apr-25 17:58N 09°20' W 079°55'0 0.0
2018-Apr-25 17:28N 09°20' W 079°55'0 0.2
2018-Apr-25 17:00N 09°21' W 079°55'2 3.2
2018-Apr-25 16:29N 09°22' W 079°56'0 0.2
2018-Apr-25 15:59N 09°22' W 079°56'1 2.2
2018-Apr-25 15:30N 09°22' W 079°57'0 0.0
2018-Apr-25 15:00N 09°22' W 079°57'0 0.0
2018-Apr-25 14:30N 09°22' W 079°57'0 0.1
2018-Apr-25 14:00N 09°22' W 079°57'0 0.0
2018-Apr-25 13:30N 09°22' W 079°57'0 0.0
2018-Apr-25 13:00N 09°22' W 079°57'0 0.0
2018-Apr-25 12:30N 09°22' W 079°57'0 0.0
2018-Apr-25 12:00N 09°22' W 079°57'0 0.0
2018-Apr-25 11:30N 09°22' W 079°57'0 0.0
2018-Apr-25 11:00N 09°22' W 079°57'0 0.0
2018-Apr-25 10:30N 09°22' W 079°57'0 0.0
2018-Apr-25 10:00N 09°22' W 079°57'0 0.0
2018-Apr-25 09:29N 09°22' W 079°57'0 0.0
2018-Apr-25 09:00N 09°22' W 079°57'0 0.0
2018-Apr-25 08:29N 09°22' W 079°57'0 0.0
2018-Apr-25 08:00N 09°22' W 079°57'0 0.0
2018-Apr-25 07:30N 09°22' W 079°57'0 0.0
2018-Apr-25 07:00N 09°22' W 079°57'0 0.0
2018-Apr-25 06:30N 09°22' W 079°57'0 0.0
2018-Apr-25 06:00N 09°22' W 079°57'0 0.0
2018-Apr-25 05:30N 09°22' W 079°57'0 0.0
2018-Apr-25 05:00N 09°22' W 079°57'0 0.0
2018-Apr-25 04:27N 09°22' W 079°57'0 0.0
2018-Apr-25 04:00N 09°22' W 079°57'0 0.0
2018-Apr-25 03:29N 09°22' W 079°57'0 0.0
2018-Apr-25 03:00N 09°22' W 079°57'0 0.0
2018-Apr-25 02:30N 09°22' W 079°57'0 0.0
2018-Apr-25 02:00N 09°22' W 079°57'0 0.0
2018-Apr-25 01:29N 09°22' W 079°57'0 0.0
2018-Apr-25 01:00N 09°22' W 079°57'0 0.0
2018-Apr-25 00:30N 09°22' W 079°57'0 0.0
2018-Apr-25 00:00N 09°22' W 079°57'0 0.0
2018-Apr-24 23:29N 09°22' W 079°57'0 0.0
2018-Apr-24 22:59N 09°22' W 079°57'0 0.0
2018-Apr-24 22:30N 09°22' W 079°57'0 0.0
2018-Apr-24 21:59N 09°22' W 079°57'0 0.0
2018-Apr-24 21:29N 09°22' W 079°57'0 0.0
2018-Apr-24 20:59N 09°22' W 079°57'0 0.0
2018-Apr-24 20:29N 09°22' W 079°57'0 0.0
2018-Apr-24 20:00N 09°22' W 079°57'0 0.0
2018-Apr-24 19:29N 09°22' W 079°57'0 0.0
2018-Apr-24 18:57N 09°22' W 079°57'0 0.0
2018-Apr-24 18:29N 09°22' W 079°57'0 0.0
2018-Apr-24 18:00N 09°22' W 079°57'0 0.0
2018-Apr-24 17:30N 09°22' W 079°57'0 0.0
2018-Apr-24 17:00N 09°22' W 079°57'0 0.0
2018-Apr-24 16:30N 09°22' W 079°57'0 0.0
2018-Apr-24 16:00N 09°22' W 079°57'0 0.0
2018-Apr-24 15:30N 09°22' W 079°57'0 0.0
2018-Apr-24 15:00N 09°22' W 079°57'0 0.0
2018-Apr-24 14:30N 09°22' W 079°57'0 0.0
2018-Apr-24 14:00N 09°22' W 079°57'0 0.0
2018-Apr-24 13:30N 09°22' W 079°57'0 0.0
2018-Apr-24 13:00N 09°22' W 079°57'0 0.0
2018-Apr-24 12:30N 09°22' W 079°57'0 0.0
2018-Apr-24 12:00N 09°22' W 079°57'0 0.0
2018-Apr-24 11:30N 09°22' W 079°57'0 0.0
2018-Apr-24 11:00N 09°22' W 079°57'0 0.0
2018-Apr-24 10:30N 09°22' W 079°57'0 0.0
2018-Apr-24 10:00N 09°22' W 079°57'0 0.0
2018-Apr-24 09:30N 09°22' W 079°57'0 0.0
2018-Apr-24 09:00N 09°22' W 079°57'0 0.0
2018-Apr-24 08:30N 09°22' W 079°57'0 0.0
2018-Apr-24 08:00N 09°22' W 079°57'0 0.0
2018-Apr-24 07:30N 09°22' W 079°57'0 0.0
2018-Apr-24 07:00N 09°22' W 079°57'0 0.0
2018-Apr-24 06:30N 09°22' W 079°57'0 0.0
2018-Apr-24 06:00N 09°22' W 079°57'0 0.0
2018-Apr-24 05:30N 09°22' W 079°57'0 0.0
2018-Apr-24 05:00N 09°22' W 079°57'0 0.0
2018-Apr-24 04:30N 09°22' W 079°57'0 0.0
2018-Apr-24 04:00N 09°22' W 079°57'0 0.0
2018-Apr-24 03:30N 09°22' W 079°57'0 0.0
2018-Apr-24 03:00N 09°22' W 079°57'0 0.0
2018-Apr-24 02:30N 09°22' W 079°57'0 0.0
2018-Apr-24 02:00N 09°22' W 079°57'0 0.0
2018-Apr-24 01:30N 09°22' W 079°57'0 0.0
2018-Apr-24 01:00N 09°22' W 079°57'0 0.0
2018-Apr-24 00:30N 09°22' W 079°57'0 0.0
2018-Apr-24 00:00N 09°22' W 079°57'0 0.0
2018-Apr-23 23:30N 09°22' W 079°57'0 0.0
2018-Apr-23 23:00N 09°22' W 079°57'0 0.0
2018-Apr-23 22:30N 09°22' W 079°57'0 0.0
2018-Apr-23 22:00N 09°22' W 079°57'0 0.0
2018-Apr-23 21:30N 09°22' W 079°57'0 0.0
2018-Apr-23 21:00N 09°22' W 079°57'0 0.0
2018-Apr-23 20:30N 09°22' W 079°57'0 0.0
2018-Apr-23 20:00N 09°22' W 079°57'0 0.0
2018-Apr-23 19:30N 09°22' W 079°57'0 0.0
2018-Apr-23 19:00N 09°22' W 079°57'0 0.0
2018-Apr-23 18:30N 09°22' W 079°57'0 0.0
2018-Apr-23 18:00N 09°22' W 079°57'0 0.0
2018-Apr-23 17:30N 09°22' W 079°57'0 0.0
2018-Apr-23 17:00N 09°22' W 079°57'0 0.0
2018-Apr-23 16:30N 09°22' W 079°57'0 0.0
2018-Apr-23 16:00N 09°22' W 079°57'0 0.0
2018-Apr-23 15:30N 09°22' W 079°57'0 0.0
2018-Apr-23 15:00N 09°22' W 079°57'0 0.0
2018-Apr-23 14:30N 09°22' W 079°57'0 0.0
2018-Apr-23 14:00N 09°22' W 079°57'0 0.0
2018-Apr-23 13:27N 09°22' W 079°57'0 0.0
2018-Apr-23 13:00N 09°22' W 079°57'0 0.0
2018-Apr-23 12:30N 09°22' W 079°57'0 0.0
2018-Apr-23 12:00N 09°22' W 079°57'0 0.0
2018-Apr-23 11:30N 09°22' W 079°57'0 0.0
2018-Apr-23 11:00N 09°22' W 079°57'0 0.0
2018-Apr-23 10:30N 09°22' W 079°57'0 0.0
2018-Apr-23 10:00N 09°22' W 079°57'0 0.0
2018-Apr-23 09:30N 09°22' W 079°57'0 0.0
2018-Apr-23 09:00N 09°22' W 079°57'0 0.0
2018-Apr-23 08:30N 09°22' W 079°57'0 0.0
2018-Apr-23 08:00N 09°22' W 079°57'0 0.0
2018-Apr-23 07:30N 09°22' W 079°57'0 0.0
2018-Apr-23 07:00N 09°22' W 079°57'0 0.0
2018-Apr-23 06:30N 09°22' W 079°57'0 0.0
2018-Apr-23 06:00N 09°22' W 079°57'0 0.0
2018-Apr-23 05:30N 09°22' W 079°57'0 0.0
2018-Apr-23 05:00N 09°22' W 079°57'0 0.0
2018-Apr-23 04:30N 09°22' W 079°57'0 0.0
2018-Apr-23 04:00N 09°22' W 079°57'0 0.0
2018-Apr-23 03:30N 09°22' W 079°57'0 0.0
2018-Apr-23 03:00N 09°22' W 079°57'0 0.0
2018-Apr-23 02:30N 09°22' W 079°57'0 0.0
2018-Apr-23 02:00N 09°22' W 079°57'0 0.0
2018-Apr-23 01:27N 09°22' W 079°57'0 0.0
2018-Apr-23 01:00N 09°22' W 079°57'0 0.0
2018-Apr-23 00:30N 09°22' W 079°57'0 0.0
2018-Apr-23 00:00N 09°22' W 079°57'0 0.0
2018-Apr-22 23:30N 09°22' W 079°57'0 0.0
2018-Apr-22 23:00N 09°22' W 079°57'0 0.0
2018-Apr-22 22:30N 09°22' W 079°57'0 0.0
2018-Apr-22 22:00N 09°22' W 079°57'0 0.0
2018-Apr-22 21:30N 09°22' W 079°57'0 0.0
2018-Apr-22 21:00N 09°22' W 079°57'0 0.0
2018-Apr-22 20:30N 09°22' W 079°57'0 0.0
2018-Apr-22 19:57N 09°22' W 079°57'0 0.0
2018-Apr-22 19:30N 09°22' W 079°57'0 0.0
2018-Apr-22 19:00N 09°22' W 079°57'0 0.0
2018-Apr-22 18:30N 09°22' W 079°57'0 0.0
2018-Apr-22 18:00N 09°22' W 079°57'0 0.0
2018-Apr-22 17:30N 09°22' W 079°57'0 0.0
2018-Apr-22 17:00N 09°22' W 079°57'0 0.0
2018-Apr-22 16:30N 09°22' W 079°57'0 0.0
2018-Apr-22 16:00N 09°22' W 079°57'0 0.0
2018-Apr-22 15:30N 09°22' W 079°57'0 0.0
2018-Apr-22 15:00N 09°22' W 079°57'0 0.0
2018-Apr-22 14:30N 09°22' W 079°57'0 0.0
2018-Apr-22 14:00N 09°22' W 079°57'0 0.0
2018-Apr-22 13:30N 09°22' W 079°57'0 0.0
2018-Apr-22 13:00N 09°22' W 079°57'0 0.0
2018-Apr-22 12:30N 09°22' W 079°57'0 0.0
2018-Apr-22 12:00N 09°22' W 079°57'0 0.0
2018-Apr-22 11:30N 09°22' W 079°57'0 0.0
2018-Apr-22 11:00N 09°22' W 079°57'0 0.0
2018-Apr-22 10:30N 09°22' W 079°57'0 0.0
2018-Apr-22 10:00N 09°22' W 079°57'0 0.0
2018-Apr-22 09:27N 09°22' W 079°57'0 0.0
2018-Apr-22 09:00N 09°22' W 079°57'0 0.0
2018-Apr-22 08:30N 09°22' W 079°57'0 0.0
2018-Apr-22 08:00N 09°22' W 079°57'0 0.0
2018-Apr-22 07:30N 09°22' W 079°57'0 0.0
2018-Apr-22 07:00N 09°22' W 079°57'0 0.0
2018-Apr-22 06:30N 09°22' W 079°57'0 0.0
2018-Apr-22 06:00N 09°22' W 079°57'0 0.0
2018-Apr-22 05:30N 09°22' W 079°57'0 0.0
2018-Apr-22 05:00N 09°22' W 079°57'0 0.0
2018-Apr-22 04:30N 09°22' W 079°57'0 0.0
2018-Apr-22 04:00N 09°22' W 079°57'0 0.0
2018-Apr-22 03:30N 09°22' W 079°57'0 0.0
2018-Apr-22 03:00N 09°22' W 079°57'0 0.0
2018-Apr-22 02:30N 09°22' W 079°57'0 0.0
2018-Apr-22 01:57N 09°22' W 079°57'0 0.0
2018-Apr-22 01:30N 09°22' W 079°57'0 0.0
2018-Apr-22 01:00N 09°22' W 079°57'0 0.0
2018-Apr-22 00:30N 09°22' W 079°57'0 0.0
2018-Apr-22 00:00N 09°22' W 079°57'0 0.0
2018-Apr-21 23:30N 09°22' W 079°57'0 0.0
2018-Apr-21 23:00N 09°22' W 079°57'0 0.0
2018-Apr-21 22:30N 09°22' W 079°57'0 0.0
2018-Apr-21 22:00N 09°22' W 079°57'0 0.0
2018-Apr-21 21:30N 09°22' W 079°57'0 0.0
2018-Apr-21 21:00N 09°22' W 079°57'0 0.0
2018-Apr-21 20:30N 09°22' W 079°57'0 0.0
2018-Apr-21 20:00N 09°22' W 079°57'0 0.0
2018-Apr-21 19:30N 09°22' W 079°57'0 0.0
2018-Apr-21 19:00N 09°22' W 079°57'0 0.0
2018-Apr-21 18:30N 09°22' W 079°57'0 0.0
2018-Apr-21 18:00N 09°22' W 079°57'0 0.0
2018-Apr-21 17:30N 09°22' W 079°57'0 0.0
2018-Apr-21 17:00N 09°22' W 079°57'0 0.0
2018-Apr-21 16:30N 09°22' W 079°57'0 0.0
2018-Apr-21 16:00N 09°22' W 079°57'0 0.0
2018-Apr-21 15:30N 09°22' W 079°57'0 0.0
2018-Apr-21 15:00N 09°22' W 079°57'0 0.0
2018-Apr-21 14:29N 09°22' W 079°57'0 0.0
2018-Apr-21 13:59N 09°22' W 079°57'0 0.0
2018-Apr-21 13:30N 09°22' W 079°57'1 1.6
2018-Apr-21 13:00N 09°23' W 079°56'1 1.3
2018-Apr-21 12:30N 09°22' W 079°56'4 8.7
2018-Apr-21 12:00N 09°26' W 079°54'510.5
2018-Apr-21 11:29N 09°31' W 079°53'  
2018-Apr-16 21:11N 16°40' W 062°08'211.1
2018-Apr-16 21:00N 16°42' W 062°06'611.8
2018-Apr-16 20:30N 16°46' W 062°02'611.4
2018-Apr-16 20:01N 16°50' W 061°58'611.2
2018-Apr-16 19:31N 16°54' W 061°54'611.8
2018-Apr-16 19:01N 16°58' W 061°49'3 6.5
2018-Apr-16 18:30N 17°00' W 061°47'0 0.2
2018-Apr-16 18:00N 17°00' W 061°47'0 0.9
2018-Apr-16 17:30N 17°01' W 061°47'1 1.5
2018-Apr-16 17:00N 17°01' W 061°46'0 0.0
2018-Apr-16 16:30N 17°01' W 061°46'0 0.0
2018-Apr-16 16:00N 17°01' W 061°46'0 0.0
2018-Apr-16 15:30N 17°01' W 061°46'0 0.0
2018-Apr-16 15:00N 17°01' W 061°46'0 0.0
2018-Apr-16 14:30N 17°01' W 061°46'0 0.0
2018-Apr-16 14:00N 17°01' W 061°46'0 0.0
2018-Apr-16 13:30N 17°01' W 061°46'0 0.0
2018-Apr-16 13:00N 17°01' W 061°46'0 0.0
2018-Apr-16 12:30N 17°01' W 061°46'0 0.0
2018-Apr-16 12:00N 17°01' W 061°46'0 0.0
2018-Apr-16 11:30N 17°01' W 061°46'0 0.0
2018-Apr-16 11:00N 17°01' W 061°46'0 0.0
2018-Apr-16 10:30N 17°01' W 061°46'0 0.0
2018-Apr-16 10:00N 17°01' W 061°46'0 0.0
2018-Apr-16 09:30N 17°01' W 061°46'0 0.0
2018-Apr-16 09:00N 17°01' W 061°46'0 0.0
2018-Apr-16 08:30N 17°01' W 061°46'0 0.0
2018-Apr-16 08:00N 17°01' W 061°46'0 0.0
2018-Apr-16 07:29N 17°01' W 061°46'0 0.0
2018-Apr-16 07:00N 17°01' W 061°46'0 0.0
2018-Apr-16 06:29N 17°01' W 061°46'0 0.0
2018-Apr-16 06:00N 17°01' W 061°46'0 0.0
2018-Apr-16 05:30N 17°01' W 061°46'0 0.0
2018-Apr-16 05:00N 17°01' W 061°46'0 0.0
2018-Apr-16 04:30N 17°01' W 061°46'0 0.0
2018-Apr-16 04:00N 17°01' W 061°46'0 0.0
2018-Apr-16 03:30N 17°01' W 061°46'0 0.0
2018-Apr-16 03:00N 17°01' W 061°46'0 0.0
2018-Apr-16 02:30N 17°01' W 061°46'0 0.0
2018-Apr-16 02:00N 17°01' W 061°46'0 0.0
2018-Apr-16 01:30N 17°01' W 061°46'0 0.0
2018-Apr-16 01:00N 17°01' W 061°46'0 0.0
2018-Apr-16 00:30N 17°01' W 061°46'  
Track history (hours):
 
Tides and Currents Weather Stations Pressure Air Temp Water Temp Dewpoint Dewpoint Depression Visibility Wind Speed Wind Dir Waves Ship Positions

Shamanna

Last reported at 2018-Apr-26 00:30 UTC. Time now 2018-Aug-20 16:20 UTC.
Position N 09°13' W 079°55'.
Warning: this ship's position is months out of date.

Length 35 m; draft 6 m.

Type: Ship. MMSI: 235114931.

Date/timePositionNaut miles runAvg speedWind from/ knotsBaromVisibWave heightAir tempDewpointWater temp
2018-Apr-26 00:30N 09°13' W 079°55'3 6.3
2018-Apr-25 23:59N 09°16' W 079°55'0 0.4
2018-Apr-25 23:28N 09°17' W 079°55'1 0.9
2018-Apr-25 22:53N 09°17' W 079°55'1 2.7
2018-Apr-25 22:30N 09°18' W 079°55'2 4.6
2018-Apr-25 22:00N 09°20' W 079°55'0 0.7
2018-Apr-25 21:28N 09°20' W 079°55'0 0.0
2018-Apr-25 20:58N 09°20' W 079°55'0 0.0
2018-Apr-25 20:28N 09°20' W 079°55'0 0.0
2018-Apr-25 19:58N 09°20' W 079°55'0 0.0
2018-Apr-25 19:28N 09°20' W 079°55'0 0.0
2018-Apr-25 18:58N 09°20' W 079°55'0 0.0
2018-Apr-25 18:28N 09°20' W 079°55'0 0.0
2018-Apr-25 17:58N 09°20' W 079°55'0 0.0
2018-Apr-25 17:28N 09°20' W 079°55'0 0.2
2018-Apr-25 17:00N 09°21' W 079°55'2 3.2
2018-Apr-25 16:29N 09°22' W 079°56'0 0.2
2018-Apr-25 15:59N 09°22' W 079°56'1 2.2
2018-Apr-25 15:30N 09°22' W 079°57'0 0.0
2018-Apr-25 15:00N 09°22' W 079°57'0 0.0
2018-Apr-25 14:30N 09°22' W 079°57'0 0.1
2018-Apr-25 14:00N 09°22' W 079°57'0 0.0
2018-Apr-25 13:30N 09°22' W 079°57'0 0.0
2018-Apr-25 13:00N 09°22' W 079°57'0 0.0
2018-Apr-25 12:30N 09°22' W 079°57'0 0.0
2018-Apr-25 12:00N 09°22' W 079°57'0 0.0
2018-Apr-25 11:30N 09°22' W 079°57'0 0.0
2018-Apr-25 11:00N 09°22' W 079°57'0 0.0
2018-Apr-25 10:30N 09°22' W 079°57'0 0.0
2018-Apr-25 10:00N 09°22' W 079°57'0 0.0
2018-Apr-25 09:29N 09°22' W 079°57'0 0.0
2018-Apr-25 09:00N 09°22' W 079°57'0 0.0
2018-Apr-25 08:29N 09°22' W 079°57'0 0.0
2018-Apr-25 08:00N 09°22' W 079°57'0 0.0
2018-Apr-25 07:30N 09°22' W 079°57'0 0.0
2018-Apr-25 07:00N 09°22' W 079°57'0 0.0
2018-Apr-25 06:30N 09°22' W 079°57'0 0.0
2018-Apr-25 06:00N 09°22' W 079°57'0 0.0
2018-Apr-25 05:30N 09°22' W 079°57'0 0.0
2018-Apr-25 05:00N 09°22' W 079°57'0 0.0
2018-Apr-25 04:27N 09°22' W 079°57'0 0.0
2018-Apr-25 04:00N 09°22' W 079°57'0 0.0
2018-Apr-25 03:29N 09°22' W 079°57'0 0.0
2018-Apr-25 03:00N 09°22' W 079°57'0 0.0
2018-Apr-25 02:30N 09°22' W 079°57'0 0.0
2018-Apr-25 02:00N 09°22' W 079°57'0 0.0
2018-Apr-25 01:29N 09°22' W 079°57'0 0.0
2018-Apr-25 01:00N 09°22' W 079°57'0 0.0
2018-Apr-25 00:30N 09°22' W 079°57'0 0.0
2018-Apr-25 00:00N 09°22' W 079°57'0 0.0
2018-Apr-24 23:29N 09°22' W 079°57'0 0.0
2018-Apr-24 22:59N 09°22' W 079°57'0 0.0
2018-Apr-24 22:30N 09°22' W 079°57'0 0.0
2018-Apr-24 21:59N 09°22' W 079°57'0 0.0
2018-Apr-24 21:29N 09°22' W 079°57'0 0.0
2018-Apr-24 20:59N 09°22' W 079°57'0 0.0
2018-Apr-24 20:29N 09°22' W 079°57'0 0.0
2018-Apr-24 20:00N 09°22' W 079°57'0 0.0
2018-Apr-24 19:29N 09°22' W 079°57'0 0.0
2018-Apr-24 18:57N 09°22' W 079°57'0 0.0
2018-Apr-24 18:29N 09°22' W 079°57'0 0.0
2018-Apr-24 18:00N 09°22' W 079°57'0 0.0
2018-Apr-24 17:30N 09°22' W 079°57'0 0.0
2018-Apr-24 17:00N 09°22' W 079°57'0 0.0
2018-Apr-24 16:30N 09°22' W 079°57'0 0.0
2018-Apr-24 16:00N 09°22' W 079°57'0 0.0
2018-Apr-24 15:30N 09°22' W 079°57'0 0.0
2018-Apr-24 15:00N 09°22' W 079°57'0 0.0
2018-Apr-24 14:30N 09°22' W 079°57'0 0.0
2018-Apr-24 14:00N 09°22' W 079°57'0 0.0
2018-Apr-24 13:30N 09°22' W 079°57'0 0.0
2018-Apr-24 13:00N 09°22' W 079°57'0 0.0
2018-Apr-24 12:30N 09°22' W 079°57'0 0.0
2018-Apr-24 12:00N 09°22' W 079°57'0 0.0
2018-Apr-24 11:30N 09°22' W 079°57'0 0.0
2018-Apr-24 11:00N 09°22' W 079°57'0 0.0
2018-Apr-24 10:30N 09°22' W 079°57'0 0.0
2018-Apr-24 10:00N 09°22' W 079°57'0 0.0
2018-Apr-24 09:30N 09°22' W 079°57'0 0.0
2018-Apr-24 09:00N 09°22' W 079°57'0 0.0
2018-Apr-24 08:30N 09°22' W 079°57'0 0.0
2018-Apr-24 08:00N 09°22' W 079°57'0 0.0
2018-Apr-24 07:30N 09°22' W 079°57'0 0.0
2018-Apr-24 07:00N 09°22' W 079°57'0 0.0
2018-Apr-24 06:30N 09°22' W 079°57'0 0.0
2018-Apr-24 06:00N 09°22' W 079°57'0 0.0
2018-Apr-24 05:30N 09°22' W 079°57'0 0.0
2018-Apr-24 05:00N 09°22' W 079°57'0 0.0
2018-Apr-24 04:30N 09°22' W 079°57'0 0.0
2018-Apr-24 04:00N 09°22' W 079°57'0 0.0
2018-Apr-24 03:30N 09°22' W 079°57'0 0.0
2018-Apr-24 03:00N 09°22' W 079°57'0 0.0
2018-Apr-24 02:30N 09°22' W 079°57'0 0.0
2018-Apr-24 02:00N 09°22' W 079°57'0 0.0
2018-Apr-24 01:30N 09°22' W 079°57'0 0.0
2018-Apr-24 01:00N 09°22' W 079°57'0 0.0
2018-Apr-24 00:30N 09°22' W 079°57'0 0.0
2018-Apr-24 00:00N 09°22' W 079°57'0 0.0
2018-Apr-23 23:30N 09°22' W 079°57'0 0.0
2018-Apr-23 23:00N 09°22' W 079°57'0 0.0
2018-Apr-23 22:30N 09°22' W 079°57'0 0.0
2018-Apr-23 22:00N 09°22' W 079°57'0 0.0
2018-Apr-23 21:30N 09°22' W 079°57'0 0.0
2018-Apr-23 21:00N 09°22' W 079°57'0 0.0
2018-Apr-23 20:30N 09°22' W 079°57'0 0.0
2018-Apr-23 20:00N 09°22' W 079°57'0 0.0
2018-Apr-23 19:30N 09°22' W 079°57'0 0.0
2018-Apr-23 19:00N 09°22' W 079°57'0 0.0
2018-Apr-23 18:30N 09°22' W 079°57'0 0.0
2018-Apr-23 18:00N 09°22' W 079°57'0 0.0
2018-Apr-23 17:30N 09°22' W 079°57'0 0.0
2018-Apr-23 17:00N 09°22' W 079°57'0 0.0
2018-Apr-23 16:30N 09°22' W 079°57'0 0.0
2018-Apr-23 16:00N 09°22' W 079°57'0 0.0
2018-Apr-23 15:30N 09°22' W 079°57'0 0.0
2018-Apr-23 15:00N 09°22' W 079°57'0 0.0
2018-Apr-23 14:30N 09°22' W 079°57'0 0.0
2018-Apr-23 14:00N 09°22' W 079°57'0 0.0
2018-Apr-23 13:27N 09°22' W 079°57'0 0.0
2018-Apr-23 13:00N 09°22' W 079°57'0 0.0
2018-Apr-23 12:30N 09°22' W 079°57'0 0.0
2018-Apr-23 12:00N 09°22' W 079°57'0 0.0
2018-Apr-23 11:30N 09°22' W 079°57'0 0.0
2018-Apr-23 11:00N 09°22' W 079°57'0 0.0
2018-Apr-23 10:30N 09°22' W 079°57'0 0.0
2018-Apr-23 10:00N 09°22' W 079°57'0 0.0
2018-Apr-23 09:30N 09°22' W 079°57'0 0.0
2018-Apr-23 09:00N 09°22' W 079°57'0 0.0
2018-Apr-23 08:30N 09°22' W 079°57'0 0.0
2018-Apr-23 08:00N 09°22' W 079°57'0 0.0
2018-Apr-23 07:30N 09°22' W 079°57'0 0.0
2018-Apr-23 07:00N 09°22' W 079°57'0 0.0
2018-Apr-23 06:30N 09°22' W 079°57'0 0.0
2018-Apr-23 06:00N 09°22' W 079°57'0 0.0
2018-Apr-23 05:30N 09°22' W 079°57'0 0.0
2018-Apr-23 05:00N 09°22' W 079°57'0 0.0
2018-Apr-23 04:30N 09°22' W 079°57'0 0.0
2018-Apr-23 04:00N 09°22' W 079°57'0 0.0
2018-Apr-23 03:30N 09°22' W 079°57'0 0.0
2018-Apr-23 03:00N 09°22' W 079°57'0 0.0
2018-Apr-23 02:30N 09°22' W 079°57'0 0.0
2018-Apr-23 02:00N 09°22' W 079°57'0 0.0
2018-Apr-23 01:27N 09°22' W 079°57'0 0.0
2018-Apr-23 01:00N 09°22' W 079°57'0 0.0
2018-Apr-23 00:30N 09°22' W 079°57'0 0.0
2018-Apr-23 00:00N 09°22' W 079°57'0 0.0
2018-Apr-22 23:30N 09°22' W 079°57'0 0.0
2018-Apr-22 23:00N 09°22' W 079°57'0 0.0
2018-Apr-22 22:30N 09°22' W 079°57'0 0.0
2018-Apr-22 22:00N 09°22' W 079°57'0 0.0
2018-Apr-22 21:30N 09°22' W 079°57'0 0.0
2018-Apr-22 21:00N 09°22' W 079°57'0 0.0
2018-Apr-22 20:30N 09°22' W 079°57'0 0.0
2018-Apr-22 19:57N 09°22' W 079°57'0 0.0
2018-Apr-22 19:30N 09°22' W 079°57'0 0.0
2018-Apr-22 19:00N 09°22' W 079°57'0 0.0
2018-Apr-22 18:30N 09°22' W 079°57'0 0.0
2018-Apr-22 18:00N 09°22' W 079°57'0 0.0
2018-Apr-22 17:30N 09°22' W 079°57'0 0.0
2018-Apr-22 17:00N 09°22' W 079°57'0 0.0
2018-Apr-22 16:30N 09°22' W 079°57'0 0.0
2018-Apr-22 16:00N 09°22' W 079°57'0 0.0
2018-Apr-22 15:30N 09°22' W 079°57'0 0.0
2018-Apr-22 15:00N 09°22' W 079°57'0 0.0
2018-Apr-22 14:30N 09°22' W 079°57'0 0.0
2018-Apr-22 14:00N 09°22' W 079°57'0 0.0
2018-Apr-22 13:30N 09°22' W 079°57'0 0.0
2018-Apr-22 13:00N 09°22' W 079°57'0 0.0
2018-Apr-22 12:30N 09°22' W 079°57'0 0.0
2018-Apr-22 12:00N 09°22' W 079°57'0 0.0
2018-Apr-22 11:30N 09°22' W 079°57'0 0.0
2018-Apr-22 11:00N 09°22' W 079°57'0 0.0
2018-Apr-22 10:30N 09°22' W 079°57'0 0.0
2018-Apr-22 10:00N 09°22' W 079°57'0 0.0
2018-Apr-22 09:27N 09°22' W 079°57'0 0.0
2018-Apr-22 09:00N 09°22' W 079°57'0 0.0
2018-Apr-22 08:30N 09°22' W 079°57'0 0.0
2018-Apr-22 08:00N 09°22' W 079°57'0 0.0
2018-Apr-22 07:30N 09°22' W 079°57'0 0.0
2018-Apr-22 07:00N 09°22' W 079°57'0 0.0
2018-Apr-22 06:30N 09°22' W 079°57'0 0.0
2018-Apr-22 06:00N 09°22' W 079°57'0 0.0
2018-Apr-22 05:30N 09°22' W 079°57'0 0.0
2018-Apr-22 05:00N 09°22' W 079°57'0 0.0
2018-Apr-22 04:30N 09°22' W 079°57'0 0.0
2018-Apr-22 04:00N 09°22' W 079°57'0 0.0
2018-Apr-22 03:30N 09°22' W 079°57'0 0.0
2018-Apr-22 03:00N 09°22' W 079°57'0 0.0
2018-Apr-22 02:30N 09°22' W 079°57'0 0.0
2018-Apr-22 01:57N 09°22' W 079°57'0 0.0
2018-Apr-22 01:30N 09°22' W 079°57'0 0.0
2018-Apr-22 01:00N 09°22' W 079°57'0 0.0
2018-Apr-22 00:30N 09°22' W 079°57'0 0.0
2018-Apr-22 00:00N 09°22' W 079°57'0 0.0
2018-Apr-21 23:30N 09°22' W 079°57'0 0.0
2018-Apr-21 23:00N 09°22' W 079°57'0 0.0
2018-Apr-21 22:30N 09°22' W 079°57'0 0.0
2018-Apr-21 22:00N 09°22' W 079°57'0 0.0
2018-Apr-21 21:30N 09°22' W 079°57'0 0.0
2018-Apr-21 21:00N 09°22' W 079°57'0 0.0
2018-Apr-21 20:30N 09°22' W 079°57'0 0.0
2018-Apr-21 20:00N 09°22' W 079°57'0 0.0
2018-Apr-21 19:30N 09°22' W 079°57'0 0.0
2018-Apr-21 19:00N 09°22' W 079°57'0 0.0
2018-Apr-21 18:30N 09°22' W 079°57'0 0.0
2018-Apr-21 18:00N 09°22' W 079°57'0 0.0
2018-Apr-21 17:30N 09°22' W 079°57'0 0.0
2018-Apr-21 17:00N 09°22' W 079°57'0 0.0
2018-Apr-21 16:30N 09°22' W 079°57'0 0.0
2018-Apr-21 16:00N 09°22' W 079°57'0 0.0
2018-Apr-21 15:30N 09°22' W 079°57'0 0.0
2018-Apr-21 15:00N 09°22' W 079°57'0 0.0
2018-Apr-21 14:29N 09°22' W 079°57'0 0.0
2018-Apr-21 13:59N 09°22' W 079°57'0 0.0
2018-Apr-21 13:30N 09°22' W 079°57'1 1.6
2018-Apr-21 13:00N 09°23' W 079°56'1 1.3
2018-Apr-21 12:30N 09°22' W 079°56'4 8.7
2018-Apr-21 12:00N 09°26' W 079°54'510.5
2018-Apr-21 11:29N 09°31' W 079°53'  
2018-Apr-16 21:11N 16°40' W 062°08'211.1
2018-Apr-16 21:00N 16°42' W 062°06'611.8
2018-Apr-16 20:30N 16°46' W 062°02'611.4
2018-Apr-16 20:01N 16°50' W 061°58'611.2
2018-Apr-16 19:31N 16°54' W 061°54'611.8
2018-Apr-16 19:01N 16°58' W 061°49'3 6.5
2018-Apr-16 18:30N 17°00' W 061°47'0 0.2
2018-Apr-16 18:00N 17°00' W 061°47'0 0.9
2018-Apr-16 17:30N 17°01' W 061°47'1 1.5
2018-Apr-16 17:00N 17°01' W 061°46'0 0.0
2018-Apr-16 16:30N 17°01' W 061°46'0 0.0
2018-Apr-16 16:00N 17°01' W 061°46'0 0.0
2018-Apr-16 15:30N 17°01' W 061°46'0 0.0
2018-Apr-16 15:00N 17°01' W 061°46'0 0.0
2018-Apr-16 14:30N 17°01' W 061°46'0 0.0
2018-Apr-16 14:00N 17°01' W 061°46'0 0.0
2018-Apr-16 13:30N 17°01' W 061°46'0 0.0
2018-Apr-16 13:00N 17°01' W 061°46'0 0.0
2018-Apr-16 12:30N 17°01' W 061°46'0 0.0
2018-Apr-16 12:00N 17°01' W 061°46'0 0.0
2018-Apr-16 11:30N 17°01' W 061°46'0 0.0
2018-Apr-16 11:00N 17°01' W 061°46'0 0.0
2018-Apr-16 10:30N 17°01' W 061°46'0 0.0
2018-Apr-16 10:00N 17°01' W 061°46'0 0.0
2018-Apr-16 09:30N 17°01' W 061°46'0 0.0
2018-Apr-16 09:00N 17°01' W 061°46'0 0.0
2018-Apr-16 08:30N 17°01' W 061°46'0 0.0
2018-Apr-16 08:00N 17°01' W 061°46'0 0.0
2018-Apr-16 07:29N 17°01' W 061°46'0 0.0
2018-Apr-16 07:00N 17°01' W 061°46'0 0.0
2018-Apr-16 06:29N 17°01' W 061°46'0 0.0
2018-Apr-16 06:00N 17°01' W 061°46'0 0.0
2018-Apr-16 05:30N 17°01' W 061°46'0 0.0
2018-Apr-16 05:00N 17°01' W 061°46'0 0.0
2018-Apr-16 04:30N 17°01' W 061°46'0 0.0
2018-Apr-16 04:00N 17°01' W 061°46'0 0.0
2018-Apr-16 03:30N 17°01' W 061°46'0 0.0
2018-Apr-16 03:00N 17°01' W 061°46'0 0.0
2018-Apr-16 02:30N 17°01' W 061°46'0 0.0
2018-Apr-16 02:00N 17°01' W 061°46'0 0.0
2018-Apr-16 01:30N 17°01' W 061°46'0 0.0
2018-Apr-16 01:00N 17°01' W 061°46'0 0.0
2018-Apr-16 00:30N 17°01' W 061°46'  

Dump ship's entire track history